Terminal Aerodrome Forecast
Issued by NWS Mobile, AL

Home | Current Version | Previous Version | Text Only | Print | Product List | Glossary On
Versions: 1 2 3 4 5 6 7 8 9 10 11 12 13 14
000
FTUS44 KMOB 242320
TAFMOB
TAF
KMOB 242320Z 2500/2524 12004KT P6SM VCSH BKN030 BKN045 OVC080
     FM250200 04004KT P6SM BKN040 BKN250
     FM251500 07008KT P6SM SCT250
     FM251800 09008KT P6SM VCTS SCT035CB BKN250 PROB30 2520/2524
      VRB20G30KT 3SM TSRA BKN025CB=

USA.gov is the U.S. government's official web portal to all federal, state and local government web resources and services.